Portada
METAR-TAF:

METAR-TAF

Aeropuertos :

Patna, India

latitud: 25-36N, longitud: 085-06E, altitud: 51 m

Observación

El informe se hizo hace 18 minutos, a las 14:30 UTC
Viento 2 kt del oeste-noroeste
Temperatura 35°C
Humedad 34%
Presión 1004 hPa
Visibilidad: 4500 m
calima

METAR: VEPT 191430Z 29002KT 4500 HZ NSC 35/17 Q1004 NOSIG

Hora: 20:18 (14:48 UTC)

Pronóstico

El informe se hizo hace 48 minutos, a las 14:00 UTC
Pronóstico válido del 19 a las 15 UTC al 19 a las 24 UTC
Viento 4 kt del oeste-noroeste
Visibilidad: 4000 m
calima
Evolucionando progresivamente
del 19 a las 21 UTC al 19 a las 23 UTC
Viento kt del norte
Visibilidad: 3000 m
calima

TAF: VEPT 191400Z 1915/1924 29004KT 4000 HZ NSC BECMG 1921/1923 00000KT 3000 HZ

Observaciones y pronósticos meteorológicos de más de 4000 aeropuertos (mensajes METAR y TAF).

Los puntos amarillos y rojos representan las estaciones disponibles.

Ponga el ratón en el punto deseado para ver el nombre de la estación.

Haga clic para ver las observaciones y los pronósticos meteorológicos.

Para cambiar el mapa : haga clic en los botones verdes con una cruz de color negro para hacer un zoom, en el botón verde con un guión para alejar o en las flechas verdes para mapas adyacentes.


METAR-TAF: